createdAt,value
2023-02-09T00:00:02.777Z,87.65
2023-02-09T00:02:40.076Z,87.18
2023-02-09T00:05:07.580Z,87.21
2023-02-09T00:07:33.952Z,87.09
2023-02-09T00:10:00.395Z,87.37
2023-02-09T00:12:45.428Z,87.69
2023-02-09T00:15:12.110Z,87.35
2023-02-09T00:17:38.612Z,86.93
2023-02-09T00:20:07.212Z,87.03
2023-02-09T00:22:34.299Z,86.82
2023-02-09T00:25:00.738Z,87.21
2023-02-09T00:27:27.933Z,86.92
2023-02-09T00:29:54.367Z,87.06
2023-02-09T00:32:20.780Z,87.09
2023-02-09T00:34:47.391Z,87.11
2023-02-09T00:37:13.764Z,86.88
2023-02-09T00:39:40.399Z,87.26
2023-02-09T00:42:06.863Z,87.41
2023-02-09T00:44:39.397Z,87.20
2023-02-09T00:47:07.373Z,87.27
2023-02-09T00:49:34.390Z,87.05
2023-02-09T00:52:00.791Z,87.26
2023-02-09T00:54:28.025Z,87.24
2023-02-09T00:56:54.445Z,86.80
2023-02-09T00:59:20.873Z,87.10
2023-02-09T01:01:47.352Z,87.66
2023-02-09T01:04:14.418Z,87.20
2023-02-09T01:06:40.911Z,87.11
2023-02-09T01:09:07.569Z,86.73
2023-02-09T01:11:33.975Z,86.92
2023-02-09T01:14:03.205Z,86.58
2023-02-09T01:16:31.692Z,86.48
2023-02-09T01:19:02.425Z,86.31
2023-02-09T01:21:29.508Z,86.51
2023-02-09T01:23:56.383Z,86.36
2023-02-09T01:26:23.018Z,86.11
2023-02-09T01:28:53.694Z,85.37
2023-02-09T01:31:32.628Z,85.82
2023-02-09T01:34:01.955Z,85.59
2023-02-09T01:36:29.833Z,85.19
2023-02-09T01:38:58.451Z,85.40
2023-02-09T01:41:25.428Z,84.82
2023-02-09T01:44:01.353Z,84.98
2023-02-09T01:46:30.537Z,85.32
2023-02-09T01:49:05.112Z,85.26
2023-02-09T01:51:36.632Z,85.23
2023-02-09T01:54:12.809Z,84.97
2023-02-09T01:56:42.761Z,85.07
2023-02-09T01:59:10.438Z,85.06
2023-02-09T02:01:38.061Z,85.01
2023-02-09T02:04:05.500Z,84.79
2023-02-09T02:06:32.401Z,84.85
2023-02-09T02:09:04.590Z,83.99
2023-02-09T02:11:32.909Z,83.94
2023-02-09T02:13:59.382Z,81.67
2023-02-09T02:16:33.802Z,81.46
2023-02-09T02:19:32.437Z,81.10
2023-02-09T02:22:14.080Z,80.99
2023-02-09T02:25:11.169Z,80.88
2023-02-09T02:27:48.791Z,80.75
2023-02-09T02:30:28.907Z,80.54
2023-02-09T02:33:03.353Z,80.29
2023-02-09T02:35:42.958Z,79.83
2023-02-09T02:38:37.513Z,78.83
2023-02-09T02:41:17.307Z,77.39
2023-02-09T02:43:49.676Z,76.94
2023-02-09T02:46:27.713Z,77.07
2023-02-09T02:49:01.032Z,77.02
2023-02-09T02:51:36.186Z,77.04
2023-02-09T02:54:08.323Z,77.25
2023-02-09T02:56:42.820Z,76.07
2023-02-09T02:59:17.554Z,75.56
2023-02-09T03:01:52.453Z,75.35
2023-02-09T03:04:20.522Z,75.28
2023-02-09T03:06:46.909Z,75.40
2023-02-09T03:09:13.511Z,75.15
2023-02-09T03:11:44.159Z,74.25
2023-02-09T03:14:25.676Z,74.13
2023-02-09T03:17:09.008Z,73.82
2023-02-09T03:20:05.827Z,74.15
2023-02-09T03:22:38.614Z,73.98
2023-02-09T03:25:12.295Z,74.40
2023-02-09T03:27:48.797Z,74.10
2023-02-09T03:30:17.272Z,74.36
2023-02-09T03:32:46.975Z,74.22
2023-02-09T03:35:17.261Z,74.16
2023-02-09T03:37:43.855Z,74.30
2023-02-09T03:40:10.941Z,73.55
2023-02-09T03:42:37.629Z,73.55
2023-02-09T03:45:04.368Z,73.25
2023-02-09T03:47:30.823Z,72.92
2023-02-09T03:49:58.289Z,73.29
2023-02-09T03:52:24.760Z,72.11
2023-02-09T03:54:51.207Z,72.37
2023-02-09T03:57:17.648Z,72.66
2023-02-09T03:59:44.059Z,71.97
2023-02-09T04:02:10.923Z,71.92
2023-02-09T04:04:37.664Z,71.47
2023-02-09T04:07:04.657Z,71.35
2023-02-09T04:09:31.222Z,71.65
2023-02-09T04:11:57.681Z,71.77
2023-02-09T04:14:24.400Z,72.08
2023-02-09T04:16:50.871Z,72.27
2023-02-09T04:19:17.373Z,72.33
2023-02-09T04:21:43.948Z,72.49
2023-02-09T04:24:10.703Z,72.58
2023-02-09T04:26:37.514Z,72.28
2023-02-09T04:29:04.651Z,72.27
2023-02-09T04:31:32.041Z,72.26
2023-02-09T04:33:58.486Z,72.33
2023-02-09T04:36:24.891Z,72.01
2023-02-09T04:38:51.372Z,71.88
2023-02-09T04:41:17.930Z,72.05
2023-02-09T04:43:46.240Z,72.20
2023-02-09T04:46:17.925Z,72.29
2023-02-09T04:48:45.509Z,72.51
2023-02-09T04:51:12.731Z,72.81
2023-02-09T04:53:39.209Z,73.13
2023-02-09T04:56:06.266Z,73.76
2023-02-09T04:58:51.820Z,74.16
2023-02-09T05:01:24.380Z,73.99
2023-02-09T05:03:51.451Z,73.58
2023-02-09T05:06:18.549Z,73.69
2023-02-09T05:08:45.505Z,73.94
2023-02-09T05:11:12.655Z,74.03
2023-02-09T05:13:39.114Z,73.73
2023-02-09T05:16:07.645Z,73.58
2023-02-09T05:18:35.662Z,74.02
2023-02-09T05:21:03.297Z,73.03
2023-02-09T05:23:30.136Z,73.19
2023-02-09T05:25:56.531Z,73.11
2023-02-09T05:28:24.518Z,72.89
2023-02-09T05:30:54.364Z,73.02
2023-02-09T05:33:22.665Z,72.88
2023-02-09T05:35:50.775Z,73.14
2023-02-09T05:38:17.401Z,73.31
2023-02-09T05:40:45.267Z,72.63
2023-02-09T05:43:12.019Z,72.33
2023-02-09T05:45:38.841Z,71.20
2023-02-09T05:48:05.476Z,71.17
2023-02-09T05:50:32.071Z,70.49
2023-02-09T05:52:59.929Z,70.62
2023-02-09T05:55:26.368Z,70.70
2023-02-09T05:57:52.819Z,70.11
2023-02-09T06:00:19.646Z,70.63
2023-02-09T06:02:46.148Z,70.70
2023-02-09T06:05:13.239Z,69.78
2023-02-09T06:07:39.631Z,69.65
2023-02-09T06:10:08.806Z,70.15
2023-02-09T06:12:35.212Z,70.07
2023-02-09T06:15:02.573Z,70.49
2023-02-09T06:17:28.973Z,70.49
2023-02-09T06:19:55.376Z,70.40
2023-02-09T06:22:21.788Z,70.63
2023-02-09T06:24:48.218Z,71.05
2023-02-09T06:27:14.602Z,70.89
2023-02-09T06:29:41.070Z,70.97
2023-02-09T06:32:07.823Z,71.05
2023-02-09T06:34:34.428Z,71.17
2023-02-09T06:37:00.855Z,71.07
2023-02-09T06:39:27.313Z,71.07
2023-02-09T06:41:53.792Z,71.27
2023-02-09T06:44:20.599Z,70.75
2023-02-09T06:46:47.365Z,70.56
2023-02-09T06:49:13.810Z,70.29
2023-02-09T06:51:40.469Z,70.48
2023-02-09T06:54:07.507Z,70.09
2023-02-09T06:56:34.140Z,70.60
2023-02-09T06:59:00.563Z,70.62
2023-02-09T07:01:28.030Z,71.03
2023-02-09T07:03:54.506Z,70.92
2023-02-09T07:06:21.348Z,70.19
2023-02-09T07:08:49.599Z,70.51
2023-02-09T07:11:17.893Z,70.42
2023-02-09T07:13:45.785Z,70.45
2023-02-09T07:16:12.739Z,70.68
2023-02-09T07:18:39.712Z,70.20
2023-02-09T07:21:09.847Z,70.57
2023-02-09T07:23:36.739Z,70.67
2023-02-09T07:26:05.434Z,69.72
2023-02-09T07:28:33.212Z,69.77
2023-02-09T07:31:06.380Z,69.85
2023-02-09T07:33:33.804Z,68.69
2023-02-09T07:36:02.533Z,69.04
2023-02-09T07:38:29.289Z,68.95
2023-02-09T07:40:58.948Z,69.24
2023-02-09T07:43:25.582Z,69.09
2023-02-09T07:45:52.137Z,69.60
2023-02-09T07:48:18.548Z,69.60
2023-02-09T07:50:49.774Z,69.54
2023-02-09T07:53:16.927Z,69.47
2023-02-09T07:55:43.805Z,69.73
2023-02-09T07:58:10.604Z,69.06
2023-02-09T08:00:37.084Z,69.10
2023-02-09T08:03:04.397Z,69.19
2023-02-09T08:05:36.212Z,69.11
2023-02-09T08:08:02.752Z,68.49
2023-02-09T08:10:29.276Z,68.71
2023-02-09T08:13:02.034Z,68.49
2023-02-09T08:15:49.393Z,68.11
2023-02-09T08:18:19.769Z,68.21
2023-02-09T08:20:46.761Z,68.42
2023-02-09T08:23:22.664Z,67.82
2023-02-09T08:25:51.471Z,67.14
2023-02-09T08:28:19.627Z,67.18
2023-02-09T08:30:47.620Z,67.19
2023-02-09T08:33:14.359Z,67.64
2023-02-09T08:35:41.218Z,67.65
2023-02-09T08:38:07.882Z,66.79
2023-02-09T08:40:40.273Z,66.84
2023-02-09T08:43:07.789Z,65.86
2023-02-09T08:45:38.865Z,65.44
2023-02-09T08:48:11.522Z,65.37
2023-02-09T08:50:39.462Z,65.78
2023-02-09T08:53:07.012Z,65.92
2023-02-09T08:55:34.252Z,65.48
2023-02-09T08:58:00.712Z,65.17
2023-02-09T09:00:29.912Z,65.00
2023-02-09T09:02:57.014Z,64.83
2023-02-09T09:05:23.452Z,65.10
2023-02-09T09:07:49.847Z,64.44
2023-02-09T09:10:16.753Z,64.25
2023-02-09T09:12:43.637Z,64.93
2023-02-09T09:15:10.372Z,64.89
2023-02-09T09:17:36.927Z,63.54
2023-02-09T09:20:03.701Z,64.22
2023-02-09T09:22:30.084Z,63.90
2023-02-09T09:24:56.589Z,63.87
2023-02-09T09:27:24.448Z,63.62
2023-02-09T09:29:51.939Z,63.23
2023-02-09T09:32:24.455Z,63.08
2023-02-09T09:34:56.144Z,63.67
2023-02-09T09:37:23.372Z,62.64
2023-02-09T09:39:50.219Z,62.73
2023-02-09T09:42:43.116Z,62.82
2023-02-09T09:45:15.867Z,62.88
2023-02-09T09:47:44.023Z,62.91
2023-02-09T09:50:21.394Z,62.91
2023-02-09T09:52:55.329Z,63.17
2023-02-09T09:55:28.116Z,62.45
2023-02-09T09:57:56.475Z,62.71
2023-02-09T10:00:27.661Z,62.12
2023-02-09T10:02:54.138Z,60.54
2023-02-09T10:05:28.127Z,61.11
2023-02-09T10:08:05.340Z,60.59
2023-02-09T10:10:43.518Z,59.98
2023-02-09T10:13:21.007Z,59.72
2023-02-09T10:15:49.807Z,59.16
2023-02-09T10:18:17.295Z,59.26
2023-02-09T10:21:01.352Z,57.80
2023-02-09T10:24:00.079Z,56.80
2023-02-09T10:26:32.257Z,57.74
2023-02-09T10:29:07.831Z,57.26
2023-02-09T10:31:40.193Z,56.86
2023-02-09T10:34:20.218Z,56.41
2023-02-09T10:37:02.904Z,56.65
2023-02-09T10:39:35.346Z,54.99
2023-02-09T10:42:18.005Z,54.78
2023-02-09T10:44:49.601Z,54.93
2023-02-09T10:47:18.826Z,55.67
2023-02-09T10:49:55.379Z,55.72
2023-02-09T10:52:26.195Z,55.66
2023-02-09T10:54:59.808Z,56.12
2023-02-09T10:57:34.033Z,56.12
2023-02-09T11:00:21.797Z,55.40
2023-02-09T11:02:48.140Z,55.26
2023-02-09T11:05:20.644Z,55.55
2023-02-09T11:08:27.722Z,55.30
2023-02-09T11:11:28.061Z,55.01
2023-02-09T11:13:54.660Z,54.55
2023-02-09T11:16:37.954Z,54.23
2023-02-09T11:19:22.534Z,53.59
2023-02-09T11:22:07.730Z,53.47
2023-02-09T11:24:46.310Z,53.42
2023-02-09T11:27:23.826Z,53.16
2023-02-09T11:29:58.268Z,53.01
2023-02-09T11:32:37.082Z,52.93
2023-02-09T11:35:09.469Z,53.62
2023-02-09T11:37:49.139Z,53.19
2023-02-09T11:40:15.500Z,53.79
2023-02-09T11:43:05.834Z,53.98
2023-02-09T11:45:55.155Z,53.43
2023-02-09T11:48:26.247Z,53.84
2023-02-09T11:50:57.612Z,53.36
2023-02-09T11:53:48.654Z,53.15
2023-02-09T11:56:21.280Z,53.47
2023-02-09T11:58:56.938Z,53.32
2023-02-09T12:01:32.481Z,52.40
2023-02-09T12:04:16.803Z,52.51
2023-02-09T12:06:49.640Z,51.82
2023-02-09T12:09:31.467Z,51.52
2023-02-09T12:12:38.402Z,52.52
2023-02-09T12:15:16.637Z,52.01
2023-02-09T12:17:51.195Z,50.62
2023-02-09T12:20:30.868Z,49.14
2023-02-09T12:23:15.870Z,49.11
2023-02-09T12:25:51.507Z,48.08
2023-02-09T12:28:24.365Z,48.80
2023-02-09T12:30:51.092Z,48.89
2023-02-09T12:33:23.333Z,48.47
2023-02-09T12:36:08.081Z,48.29
2023-02-09T12:39:04.586Z,48.51
2023-02-09T12:41:51.242Z,48.74
2023-02-09T12:44:18.392Z,49.92
2023-02-09T12:46:44.954Z,49.32
2023-02-09T12:49:11.617Z,49.15
2023-02-09T12:51:50.297Z,49.24
2023-02-09T12:54:48.322Z,49.28
2023-02-09T12:57:14.685Z,49.12
2023-02-09T13:00:04.652Z,49.87
2023-02-09T13:02:37.283Z,49.29
2023-02-09T13:05:15.192Z,49.10
2023-02-09T13:08:05.953Z,49.02
2023-02-09T13:10:51.663Z,49.35
2023-02-09T13:13:34.016Z,49.24
2023-02-09T13:16:00.344Z,48.53
2023-02-09T13:19:00.623Z,48.17
2023-02-09T13:21:42.611Z,48.79
2023-02-09T13:24:16.924Z,48.44
2023-02-09T13:26:53.667Z,49.52
2023-02-09T13:29:22.892Z,50.71
2023-02-09T13:32:14.809Z,50.93
2023-02-09T13:34:53.260Z,51.49
2023-02-09T13:37:25.506Z,50.84
2023-02-09T13:39:57.895Z,51.00
2023-02-09T13:42:26.749Z,51.45
2023-02-09T13:44:56.076Z,50.95
2023-02-09T13:47:23.912Z,52.28
2023-02-09T13:50:03.598Z,53.14
2023-02-09T13:52:38.814Z,52.97
2023-02-09T13:55:13.470Z,52.81
2023-02-09T13:57:43.369Z,52.42
2023-02-09T14:00:25.846Z,52.28
2023-02-09T14:03:02.267Z,52.50
2023-02-09T14:06:24.198Z,52.40
2023-02-09T14:08:52.129Z,52.47
2023-02-09T14:11:41.497Z,52.06
2023-02-09T14:14:14.952Z,52.39
2023-02-09T14:16:52.591Z,52.54
2023-02-09T14:19:31.254Z,52.17
2023-02-09T14:21:57.729Z,52.14
2023-02-09T14:24:25.978Z,52.44
2023-02-09T14:27:16.406Z,52.17
2023-02-09T14:29:47.099Z,52.23
2023-02-09T14:32:33.311Z,52.92
2023-02-09T14:35:20.046Z,52.26
2023-02-09T14:37:47.952Z,52.22
2023-02-09T14:40:23.757Z,53.12
2023-02-09T14:43:09.320Z,53.04
2023-02-09T14:45:48.858Z,53.52
2023-02-09T14:48:19.441Z,52.79
2023-02-09T14:50:47.835Z,53.35
2023-02-09T14:53:16.122Z,53.90
2023-02-09T14:55:44.554Z,54.13
2023-02-09T14:58:24.639Z,53.47
2023-02-09T15:00:52.509Z,53.91
2023-02-09T15:03:19.504Z,54.64
2023-02-09T15:05:48.520Z,54.89
2023-02-09T15:08:19.943Z,55.37
2023-02-09T15:10:53.358Z,55.75
2023-02-09T15:13:21.240Z,55.97
2023-02-09T15:15:47.986Z,56.75
2023-02-09T15:18:19.957Z,56.58
2023-02-09T15:20:46.900Z,57.23
2023-02-09T15:23:13.673Z,57.52
2023-02-09T15:25:41.260Z,57.98
2023-02-09T15:28:34.296Z,56.94
2023-02-09T15:31:00.803Z,57.06
2023-02-09T15:33:28.615Z,56.87
2023-02-09T15:35:58.947Z,57.33
2023-02-09T15:38:27.814Z,57.87
2023-02-09T15:41:12.746Z,57.55
2023-02-09T15:43:57.902Z,57.66
2023-02-09T15:46:42.805Z,58.23
2023-02-09T15:49:09.406Z,58.13
2023-02-09T15:51:38.566Z,58.25
2023-02-09T15:54:14.358Z,58.00
2023-02-09T15:56:41.204Z,57.71
2023-02-09T15:59:16.069Z,57.97
2023-02-09T16:01:42.700Z,58.00
2023-02-09T16:04:14.184Z,57.31
2023-02-09T16:06:53.729Z,57.44
2023-02-09T16:09:28.653Z,57.79
2023-02-09T16:11:55.254Z,58.22
2023-02-09T16:14:24.307Z,57.69
2023-02-09T16:16:51.361Z,57.82
2023-02-09T16:19:17.986Z,57.99
2023-02-09T16:21:48.906Z,58.53
2023-02-09T16:24:30.154Z,58.88
2023-02-09T16:27:02.666Z,58.70
2023-02-09T16:29:29.128Z,59.13
2023-02-09T16:31:55.672Z,59.13
2023-02-09T16:34:22.110Z,58.99
2023-02-09T16:36:49.053Z,58.63
2023-02-09T16:39:20.771Z,58.96
2023-02-09T16:41:48.123Z,58.24
2023-02-09T16:44:19.599Z,58.33
2023-02-09T16:46:48.620Z,58.89
2023-02-09T16:49:31.376Z,59.49
2023-02-09T16:52:02.619Z,58.84
2023-02-09T16:54:33.303Z,59.33
2023-02-09T16:57:00.851Z,59.46
2023-02-09T16:59:27.294Z,58.88
2023-02-09T17:01:53.757Z,58.85
2023-02-09T17:04:20.238Z,59.20
2023-02-09T17:06:52.645Z,59.16
2023-02-09T17:09:19.096Z,59.91
2023-02-09T17:11:45.695Z,59.92
2023-02-09T17:14:12.661Z,60.19
2023-02-09T17:16:43.464Z,59.86
2023-02-09T17:19:15.129Z,60.11
2023-02-09T17:21:42.337Z,59.91
2023-02-09T17:24:17.178Z,60.56
2023-02-09T17:26:44.479Z,60.14
2023-02-09T17:29:11.373Z,59.81
2023-02-09T17:31:52.376Z,59.55
2023-02-09T17:34:20.523Z,59.80
2023-02-09T17:36:47.034Z,59.85
2023-02-09T17:39:14.180Z,59.08
2023-02-09T17:41:45.429Z,59.76
2023-02-09T17:44:29.081Z,59.68
2023-02-09T17:47:05.202Z,59.51
2023-02-09T17:49:32.100Z,59.77
2023-02-09T17:51:58.494Z,59.69
2023-02-09T17:54:25.201Z,59.23
2023-02-09T17:56:51.613Z,59.51
2023-02-09T17:59:20.089Z,58.98
2023-02-09T18:01:50.022Z,59.45
2023-02-09T18:04:23.192Z,59.21
2023-02-09T18:06:49.694Z,59.83
2023-02-09T18:09:16.253Z,59.74
2023-02-09T18:11:52.154Z,59.99
2023-02-09T18:14:20.417Z,59.17
2023-02-09T18:16:47.727Z,59.33
2023-02-09T18:19:15.733Z,59.28
2023-02-09T18:21:57.359Z,59.32
2023-02-09T18:24:25.892Z,59.07
2023-02-09T18:26:52.355Z,59.06
2023-02-09T18:29:22.795Z,59.20
2023-02-09T18:31:50.025Z,59.13
2023-02-09T18:34:16.859Z,58.50
2023-02-09T18:36:43.924Z,58.41
2023-02-09T18:39:10.647Z,58.94
2023-02-09T18:41:37.315Z,57.72
2023-02-09T18:44:03.747Z,57.91
2023-02-09T18:46:30.328Z,58.72
2023-02-09T18:48:56.940Z,58.14
2023-02-09T18:51:23.480Z,57.50
2023-02-09T18:53:51.122Z,57.86
2023-02-09T18:56:19.785Z,57.61
2023-02-09T18:58:47.850Z,57.14
2023-02-09T19:01:14.334Z,56.60
2023-02-09T19:03:41.471Z,57.21
2023-02-09T19:06:12.408Z,57.58
2023-02-09T19:08:39.711Z,56.39
2023-02-09T19:11:07.180Z,56.05
2023-02-09T19:13:34.067Z,56.31
2023-02-09T19:16:00.795Z,56.69
2023-02-09T19:18:27.697Z,56.32
2023-02-09T19:20:55.629Z,56.54
2023-02-09T19:23:24.075Z,56.84
2023-02-09T19:26:00.983Z,57.46
2023-02-09T19:28:27.497Z,57.13
2023-02-09T19:30:54.016Z,58.40
2023-02-09T19:33:23.048Z,58.34
2023-02-09T19:35:59.806Z,59.00
2023-02-09T19:38:26.847Z,61.02
2023-02-09T19:41:08.527Z,62.29
2023-02-09T19:43:36.650Z,63.43
2023-02-09T19:46:04.435Z,64.00
2023-02-09T19:48:31.463Z,65.15
2023-02-09T19:50:59.243Z,65.87
2023-02-09T19:53:26.729Z,66.23
2023-02-09T19:55:53.972Z,66.18
2023-02-09T19:58:23.714Z,66.49
2023-02-09T20:00:51.898Z,66.35
2023-02-09T20:03:18.644Z,65.49
2023-02-09T20:05:45.836Z,65.93
2023-02-09T20:08:16.355Z,65.59
2023-02-09T20:10:44.306Z,65.95
2023-02-09T20:13:12.957Z,65.86
2023-02-09T20:15:43.913Z,66.30
2023-02-09T20:18:13.525Z,65.88
2023-02-09T20:20:43.112Z,65.98
2023-02-09T20:23:10.108Z,65.83
2023-02-09T20:25:39.660Z,66.19
2023-02-09T20:28:06.316Z,66.54
2023-02-09T20:30:32.880Z,66.38
2023-02-09T20:32:59.325Z,66.47
2023-02-09T20:35:26.988Z,66.38
2023-02-09T20:37:53.756Z,66.62
2023-02-09T20:40:20.257Z,66.25
2023-02-09T20:43:05.371Z,65.98
2023-02-09T20:45:50.336Z,66.58
2023-02-09T20:48:17.388Z,66.39
2023-02-09T20:50:45.462Z,66.96
2023-02-09T20:53:12.732Z,67.05
2023-02-09T20:55:39.754Z,67.41
2023-02-09T20:58:06.626Z,68.42
2023-02-09T21:00:35.159Z,68.17
2023-02-09T21:03:01.980Z,68.75
2023-02-09T21:05:28.408Z,69.39
2023-02-09T21:07:55.900Z,69.71
2023-02-09T21:10:22.481Z,69.58
2023-02-09T21:12:48.922Z,69.43
2023-02-09T21:15:15.743Z,70.08
2023-02-09T21:17:47.650Z,70.69
2023-02-09T21:20:16.186Z,70.68
2023-02-09T21:22:42.728Z,70.56
2023-02-09T21:25:10.045Z,71.32
2023-02-09T21:27:37.131Z,71.42
2023-02-09T21:30:04.951Z,71.77
2023-02-09T21:32:34.764Z,72.10
2023-02-09T21:35:02.058Z,71.85
2023-02-09T21:37:32.213Z,72.76
2023-02-09T21:40:02.769Z,72.53
2023-02-09T21:42:30.627Z,73.04
2023-02-09T21:44:57.943Z,72.80
2023-02-09T21:47:27.882Z,72.99
2023-02-09T21:49:54.386Z,73.29
2023-02-09T21:52:21.033Z,73.52
2023-02-09T21:54:47.575Z,74.05
2023-02-09T21:57:14.271Z,73.49
2023-02-09T21:59:40.762Z,74.35
2023-02-09T22:02:07.956Z,74.52
2023-02-09T22:04:34.495Z,75.04
2023-02-09T22:07:00.909Z,75.88
2023-02-09T22:09:27.980Z,75.68
2023-02-09T22:11:54.478Z,75.92
2023-02-09T22:14:20.894Z,76.26
2023-02-09T22:16:47.330Z,76.26
2023-02-09T22:19:14.133Z,76.90
2023-02-09T22:21:40.600Z,77.38
2023-02-09T22:24:07.373Z,77.80
2023-02-09T22:26:33.837Z,78.23
2023-02-09T22:29:00.368Z,78.82
2023-02-09T22:31:26.811Z,79.02
2023-02-09T22:33:54.033Z,79.25
2023-02-09T22:36:21.761Z,79.50
2023-02-09T22:38:48.183Z,79.43
2023-02-09T22:41:23.464Z,79.98
2023-02-09T22:44:02.722Z,80.34
2023-02-09T22:46:32.824Z,80.95
2023-02-09T22:49:02.700Z,81.41
2023-02-09T22:51:31.082Z,81.74
2023-02-09T22:53:59.171Z,81.57
2023-02-09T22:56:27.347Z,82.05
2023-02-09T22:58:54.826Z,82.23
2023-02-09T23:01:21.616Z,82.95
2023-02-09T23:03:48.769Z,83.57
2023-02-09T23:06:18.091Z,84.21
2023-02-09T23:08:45.428Z,84.59
2023-02-09T23:11:15.093Z,85.54
2023-02-09T23:13:42.456Z,85.51
2023-02-09T23:16:22.558Z,85.10
2023-02-09T23:18:52.673Z,85.44
2023-02-09T23:21:21.703Z,86.41
2023-02-09T23:23:48.332Z,86.62
2023-02-09T23:26:16.416Z,87.17
2023-02-09T23:28:43.103Z,87.04
2023-02-09T23:31:17.304Z,87.53
2023-02-09T23:33:44.822Z,87.61
2023-02-09T23:36:22.834Z,86.77
2023-02-09T23:38:56.855Z,87.60
2023-02-09T23:41:24.161Z,87.58
2023-02-09T23:43:51.653Z,87.44
2023-02-09T23:46:20.951Z,88.00
2023-02-09T23:48:47.957Z,88.00
2023-02-09T23:51:20.892Z,87.73
2023-02-09T23:53:48.047Z,88.20
2023-02-09T23:56:16.082Z,87.63
2023-02-09T23:58:44.699Z,87.79
